createdAt,value
2022-10-18T00:03:26.845Z,13.38
2022-10-18T00:08:28.577Z,13.37
2022-10-18T00:13:30.367Z,13.29
2022-10-18T00:18:31.658Z,13.19
2022-10-18T00:23:33.688Z,13.18
2022-10-18T00:28:35.306Z,13.13
2022-10-18T00:33:36.425Z,13.06
2022-10-18T00:38:38.326Z,13.03
2022-10-18T00:43:39.719Z,13
2022-10-18T00:48:41.897Z,12.94
2022-10-18T00:53:43.491Z,12.91
2022-10-18T00:58:44.776Z,12.85
2022-10-18T01:03:46.358Z,12.67
2022-10-18T01:08:47.649Z,12.51
2022-10-18T01:13:48.980Z,12.47
2022-10-18T01:18:50.360Z,12.38
2022-10-18T01:23:52.243Z,12.4
2022-10-18T01:28:53.714Z,12.41
2022-10-18T01:33:55.063Z,12.4
2022-10-18T01:38:56.271Z,12.41
2022-10-18T01:43:57.566Z,12.41
2022-10-18T01:48:58.928Z,12.38
2022-10-18T01:54:00.236Z,12.37
2022-10-18T01:59:01.714Z,12.38
2022-10-18T02:04:03.766Z,12.34
2022-10-18T02:09:05.793Z,12.33
2022-10-18T02:14:07.774Z,12.31
2022-10-18T02:19:09.269Z,12.3
2022-10-18T02:24:11.095Z,12.29
2022-10-18T02:29:13.341Z,12.26
2022-10-18T02:34:15.469Z,12.25
2022-10-18T02:39:17.353Z,12.19
2022-10-18T02:44:19.488Z,12.18
2022-10-18T02:49:21.333Z,12.15
2022-10-18T02:54:22.859Z,12.07
2022-10-18T02:59:24.920Z,12.08
2022-10-18T03:09:28.353Z,11.97
2022-10-18T03:14:30.369Z,11.96
2022-10-18T03:19:32.166Z,11.95
2022-10-18T03:24:33.922Z,11.85
2022-10-18T03:29:35.956Z,11.85
2022-10-18T03:34:37.509Z,11.83
2022-10-18T03:39:39.409Z,11.79
2022-10-18T03:44:40.701Z,11.78
2022-10-18T03:49:42.081Z,11.79
2022-10-18T03:54:43.756Z,11.78
2022-10-18T03:59:45.911Z,11.78
2022-10-18T04:04:47.112Z,11.78
2022-10-18T04:09:48.602Z,11.79
2022-10-18T04:14:50.168Z,11.77
2022-10-18T04:19:51.620Z,11.78
2022-10-18T04:24:53.663Z,11.79
2022-10-18T04:29:55.757Z,11.75
2022-10-18T04:34:57.057Z,11.74
2022-10-18T04:39:58.573Z,11.74
2022-10-18T04:45:00.580Z,11.72
2022-10-18T04:50:01.993Z,11.73
2022-10-18T04:55:03.590Z,11.75
2022-10-18T05:00:05.381Z,11.59
2022-10-18T05:05:09.145Z,11.58
2022-10-18T05:10:09.114Z,11.6
2022-10-18T05:15:10.802Z,11.63
2022-10-18T05:25:14.470Z,11.67
2022-10-18T05:30:15.771Z,11.7
2022-10-18T05:35:17.730Z,11.72
2022-10-18T05:40:19.840Z,11.8
2022-10-18T05:45:21.175Z,11.86
2022-10-18T05:50:22.754Z,11.9
2022-10-18T05:55:24.115Z,12
2022-10-18T06:00:25.521Z,12.14
2022-10-18T06:05:27.394Z,12.28
2022-10-18T06:10:29.198Z,12.4
2022-10-18T06:15:30.742Z,12.53
2022-10-18T06:20:32.377Z,12.65
2022-10-18T06:25:34.244Z,12.72
2022-10-18T06:30:36.284Z,12.85
2022-10-18T06:35:37.569Z,12.95
2022-10-18T06:40:38.863Z,13.01
2022-10-18T06:45:40.628Z,13.1
2022-10-18T06:50:41.859Z,13.2
2022-10-18T06:55:43.459Z,13.31
2022-10-18T07:00:45.067Z,13.46
2022-10-18T07:05:46.678Z,13.56
2022-10-18T07:10:48.213Z,13.64
2022-10-18T07:15:49.411Z,13.73
2022-10-18T07:20:50.717Z,13.9
2022-10-18T07:25:52.586Z,14.1
2022-10-18T07:30:54.562Z,14.28
2022-10-18T07:35:55.963Z,14.51
2022-10-18T07:40:58.113Z,14.73
2022-10-18T07:46:00.026Z,14.91
2022-10-18T07:51:01.745Z,15.14
2022-10-18T07:56:05.769Z,15.37
2022-10-18T08:01:04.988Z,15.58
2022-10-18T08:06:06.643Z,16.12
2022-10-18T08:11:07.906Z,16.36
2022-10-18T08:16:09.230Z,16.6
2022-10-18T08:21:11.183Z,16.65
2022-10-18T08:26:13.046Z,16.99
2022-10-18T08:31:14.807Z,17.73
2022-10-18T08:36:16.716Z,18.14
2022-10-18T08:41:18.424Z,18.99
2022-10-18T08:46:19.781Z,20.24
2022-10-18T08:51:20.997Z,21.57
2022-10-18T08:56:22.152Z,23.13
2022-10-18T09:01:23.401Z,24.15
2022-10-18T09:06:24.812Z,25.24
2022-10-18T09:11:26.720Z,26.25
2022-10-18T09:16:28.270Z,26.47
2022-10-18T09:21:29.673Z,26.8
2022-10-18T09:26:31.503Z,28.14
2022-10-18T09:31:32.982Z,29.35
2022-10-18T09:36:34.518Z,30.42
2022-10-18T09:41:36.108Z,29.41
2022-10-18T09:46:38.175Z,28.73
2022-10-18T09:51:39.715Z,28.42
2022-10-18T09:56:41.887Z,27.68
2022-10-18T10:11:45.933Z,26.66
2022-10-18T10:31:51.762Z,30.26
2022-10-18T10:36:53.565Z,30.49
2022-10-18T10:52:02.580Z,31.63
2022-10-18T11:02:01.821Z,32.46
2022-10-18T11:12:05.713Z,32.84
2022-10-18T11:17:08.348Z,32.34
2022-10-18T11:22:09.687Z,31.59
2022-10-18T11:27:11.649Z,30.74
2022-10-18T11:32:13.830Z,29.77
2022-10-18T11:37:27.557Z,29.22
2022-10-18T11:42:17.053Z,28.75
2022-10-18T11:47:18.395Z,28.04
2022-10-18T11:52:26.527Z,27.65
2022-10-18T11:57:28.611Z,27.23
2022-10-18T12:02:30.695Z,26.89
2022-10-18T12:07:32.558Z,26.61
2022-10-18T12:12:34.382Z,26.25
2022-10-18T12:17:47.631Z,26.06
2022-10-18T12:22:36.734Z,25.96
2022-10-18T12:27:38.865Z,25.72
2022-10-18T12:32:40.241Z,25.57
2022-10-18T12:37:41.439Z,25.4
2022-10-18T12:42:43.288Z,25.34
2022-10-18T12:47:44.631Z,25.25
2022-10-18T12:52:46.391Z,25.19
2022-10-18T12:57:47.604Z,25.31
2022-10-18T13:02:49.096Z,25.36
2022-10-18T13:07:50.834Z,25.28
2022-10-18T13:12:52.361Z,25.22
2022-10-18T13:17:53.870Z,25.09
2022-10-18T13:22:55.948Z,25.06
2022-10-18T13:27:57.426Z,25
2022-10-18T13:32:59.445Z,25.03
2022-10-18T13:38:00.786Z,25.04
2022-10-18T13:43:01.929Z,24.95
2022-10-18T13:48:03.744Z,24.79
2022-10-18T13:53:05.030Z,24.63
2022-10-18T13:58:06.413Z,24.48
2022-10-18T14:03:12.776Z,24.31
2022-10-18T14:08:10.581Z,24.11
2022-10-18T14:13:10.887Z,24.01
2022-10-18T14:18:12.665Z,23.87
2022-10-18T14:23:14.360Z,23.75
2022-10-18T14:28:16.262Z,23.75
2022-10-18T14:33:17.996Z,23.82
2022-10-18T14:38:19.226Z,23.75
2022-10-18T14:43:20.524Z,23.67
2022-10-18T14:48:21.988Z,23.59
2022-10-18T14:53:23.248Z,23.5
2022-10-18T14:58:25.290Z,23.4
2022-10-18T15:03:27.352Z,23.24
2022-10-18T15:08:29.359Z,23.17
2022-10-18T15:13:30.905Z,23.17
2022-10-18T15:18:32.127Z,23.06
2022-10-18T15:23:33.600Z,22.92
2022-10-18T15:28:35.789Z,22.8
2022-10-18T15:33:37.138Z,22.68
2022-10-18T15:38:39.323Z,22.54
2022-10-18T15:43:40.945Z,22.36
2022-10-18T15:48:42.985Z,22.17
2022-10-18T15:53:44.169Z,22.13
2022-10-18T15:58:45.674Z,21.99
2022-10-18T16:03:47.042Z,21.86
2022-10-18T16:08:48.949Z,21.75
2022-10-18T16:13:50.738Z,21.59
2022-10-18T16:18:52.511Z,21.47
2022-10-18T16:23:53.972Z,21.37
2022-10-18T16:28:55.316Z,21.27
2022-10-18T16:33:57.120Z,21.16
2022-10-18T16:38:58.717Z,21.07
2022-10-18T16:44:00.378Z,20.94
2022-10-18T16:49:02.221Z,20.88
2022-10-18T16:54:04.201Z,20.85
2022-10-18T16:59:05.738Z,20.74
2022-10-18T17:04:07.936Z,20.65
2022-10-18T17:09:09.453Z,20.54
2022-10-18T17:14:10.670Z,20.41
2022-10-18T17:19:12.040Z,20.33
2022-10-18T17:24:14.135Z,20.21
2022-10-18T17:29:16.033Z,20.09
2022-10-18T17:34:21.135Z,20
2022-10-18T17:39:18.890Z,19.84
2022-10-18T17:44:20.881Z,19.7
2022-10-18T17:49:22.207Z,19.59
2022-10-18T17:54:24.083Z,19.42
2022-10-18T17:59:25.946Z,19.32
2022-10-18T18:04:27.431Z,19.24
2022-10-18T18:09:29.180Z,19.09
2022-10-18T18:14:30.582Z,19.01
2022-10-18T18:19:32.555Z,18.92
2022-10-18T18:24:34.556Z,18.71
2022-10-18T18:29:35.864Z,18.64
2022-10-18T18:34:37.943Z,18.51
2022-10-18T18:39:39.503Z,18.33
2022-10-18T18:44:40.793Z,18.25
2022-10-18T18:49:42.394Z,18.09
2022-10-18T18:54:44.426Z,18.01
2022-10-18T18:59:46.215Z,17.94
2022-10-18T19:04:48.081Z,17.82
2022-10-18T19:09:50.002Z,17.76
2022-10-18T19:14:51.413Z,17.7
2022-10-18T19:19:53.412Z,17.6
2022-10-18T19:24:54.616Z,17.54
2022-10-18T19:29:56.047Z,17.48
2022-10-18T19:34:57.851Z,17.36
2022-10-18T19:39:59.506Z,17.32
2022-10-18T19:45:00.940Z,17.29
2022-10-18T19:50:02.217Z,17.18
2022-10-18T19:55:03.523Z,17.12
2022-10-18T20:00:06.758Z,17.04
2022-10-18T20:05:07.300Z,16.91
2022-10-18T20:10:09.328Z,16.89
2022-10-18T20:15:11.188Z,16.87
2022-10-18T20:20:12.867Z,16.76
2022-10-18T20:25:14.358Z,16.74
2022-10-18T20:30:16.130Z,16.7
2022-10-18T20:35:17.862Z,16.62
2022-10-18T20:40:19.795Z,16.6
2022-10-18T20:45:21.028Z,16.57
2022-10-18T20:50:22.679Z,16.48
2022-10-18T20:55:24.096Z,16.45
2022-10-18T21:00:25.856Z,16.42
2022-10-18T21:05:27.195Z,16.28
2022-10-18T21:10:28.655Z,16.27
2022-10-18T21:15:30.535Z,16.24
2022-10-18T21:20:32.336Z,16.15
2022-10-18T21:25:34.268Z,16.14
2022-10-18T21:30:36.301Z,16.11
2022-10-18T21:35:37.615Z,16.04
2022-10-18T21:40:39.520Z,16.04
2022-10-18T21:45:41.452Z,16.03
2022-10-18T21:50:43.247Z,15.97
2022-10-18T21:55:44.932Z,15.98
2022-10-18T22:15:51.191Z,16.01
2022-10-18T22:20:52.607Z,15.96
2022-10-18T22:25:54.139Z,15.95
2022-10-18T22:30:55.546Z,15.93
2022-10-18T22:35:57.242Z,15.83
2022-10-18T22:40:58.883Z,15.78
2022-10-18T22:46:01.061Z,15.72
2022-10-18T22:51:02.438Z,15.58
2022-10-18T22:56:03.902Z,15.54
2022-10-18T23:01:05.574Z,15.5
2022-10-18T23:06:07.311Z,15.36
2022-10-18T23:11:09.099Z,15.34
2022-10-18T23:16:11.189Z,15.29
2022-10-18T23:21:13.256Z,15.18
2022-10-18T23:26:14.511Z,15.13
2022-10-18T23:31:16.617Z,15.09
2022-10-18T23:36:17.821Z,14.94
2022-10-18T23:41:19.005Z,14.91
2022-10-18T23:46:21.096Z,14.88
2022-10-18T23:51:22.639Z,14.8
2022-10-18T23:56:24.552Z,14.78
